Time;durP1;ratioP1;P1;durP2;ratioP2;P2;SDS_P1;SDS_P2;PMS_P1;PMS_P2;Temp;Humidity;BMP_temperature;BMP_pressure;BME280_temperature;BME280_humidity;BME280_pressure;Samples;Min_cycle;Max_cycle;Signal;HPM_P1;HPM_P2
2023/08/07 00:00:42;;;;;;;2.23;2.07;;;;;;;;;;5018884;28;20441;-78
2023/08/07 00:03:08;;;;;;;1.87;1.57;;;;;;;;;;5017933;28;21144;-80
2023/08/07 00:05:35;;;;;;;1.90;1.87;;;;;;;;;;5024212;28;21003;-78
2023/08/07 00:08:00;;;;;;;2.37;2.27;;;;;;;;;;5022472;28;20462;-78
2023/08/07 00:10:27;;;;;;;2.10;1.90;;;;;;;;;;5022019;28;20423;-78
2023/08/07 00:12:53;;;;;;;2.73;2.50;;;;;;;;;;5018800;28;20470;-78
2023/08/07 00:15:19;;;;;;;4.87;3.60;;;;;;;;;;5021194;28;20439;-79
2023/08/07 00:17:45;;;;;;;3.03;2.93;;;;;;;;;;5019079;28;20442;-78
2023/08/07 00:20:11;;;;;;;3.67;2.73;;;;;;;;;;5020934;28;20431;-79
2023/08/07 00:22:37;;;;;;;3.10;2.60;;;;;;;;;;5019116;28;20489;-78
2023/08/07 00:25:03;;;;;;;3.27;3.07;;;;;;;;;;5022542;28;20453;-78
2023/08/07 00:27:29;;;;;;;2.67;2.57;;;;;;;;;;5018546;28;20430;-78
2023/08/07 00:29:55;;;;;;;4.13;2.13;;;;;;;;;;5019629;28;20419;-77
2023/08/07 00:32:21;;;;;;;3.00;2.90;;;;;;;;;;5016566;28;20434;-78
2023/08/07 00:34:47;;;;;;;7.87;3.07;;;;;;;;;;5002654;28;20511;-78
2023/08/07 00:37:13;;;;;;;6.13;3.90;;;;;;;;;;5018746;28;20443;-79
2023/08/07 00:39:39;;;;;;;5.53;4.17;;;;;;;;;;5020352;28;20430;-79
2023/08/07 00:42:06;;;;;;;7.10;4.10;;;;;;;;;;5017562;28;21248;-79
2023/08/07 00:44:32;;;;;;;7.23;4.20;;;;;;;;;;5020947;28;21038;-79
2023/08/07 00:46:58;;;;;;;5.30;3.60;;;;;;;;;;5016335;28;20438;-79
2023/08/07 00:49:24;;;;;;;6.13;2.70;;;;;;;;;;5023035;28;20573;-79
2023/08/07 00:51:50;;;;;;;6.03;3.00;;;;;;;;;;5014367;28;20533;-79
2023/08/07 00:54:18;;;;;;;4.57;3.57;;;;;;;;;;5025764;28;20473;-79
2023/08/07 00:56:45;;;;;;;5.30;3.20;;;;;;;;;;5021377;28;20442;-78
2023/08/07 00:59:11;;;;;;;3.27;3.07;;;;;;;;;;5024844;28;20410;-79
2023/08/07 01:01:37;;;;;;;5.80;3.47;;;;;;;;;;5021818;28;20449;-79
2023/08/07 01:04:03;;;;;;;7.40;3.30;;;;;;;;;;5021982;28;20466;-78
2023/08/07 01:06:29;;;;;;;2.73;2.37;;;;;;;;;;5023434;28;20457;-78
2023/08/07 01:08:55;;;;;;;2.70;2.50;;;;;;;;;;5024026;28;20441;-78
2023/08/07 01:11:24;;;;;;;6.93;3.40;;;;;;;;;;5020762;28;20469;-78
2023/08/07 01:14:07;;;;;;;6.60;2.63;;;;;;;;;;5024543;28;20464;-79
2023/08/07 01:16:36;;;;;;;3.57;2.80;;;;;;;;;;5001831;28;20442;-79
2023/08/07 01:19:03;;;;;;;14.47;3.57;;;;;;;;;;5022399;28;20442;-78
2023/08/07 01:21:29;;;;;;;9.33;3.33;;;;;;;;;;5023908;28;20464;-78
2023/08/07 01:23:56;;;;;;;5.63;2.97;;;;;;;;;;5024865;28;20463;-79
2023/08/07 01:26:22;;;;;;;4.30;2.80;;;;;;;;;;5022879;28;20442;-80
2023/08/07 01:29:08;;;;;;;3.70;2.80;;;;;;;;;;5022808;28;20443;-80
2023/08/07 01:31:36;;;;;;;2.97;2.70;;;;;;;;;;5011712;28;21223;-81
2023/08/07 01:34:06;;;;;;;2.73;2.43;;;;;;;;;;5023955;28;20661;-80
2023/08/07 01:36:32;;;;;;;4.27;3.00;;;;;;;;;;4999526;28;20999;-79
2023/08/07 01:39:00;;;;;;;2.73;2.00;;;;;;;;;;5021995;28;20528;-79
2023/08/07 01:41:26;;;;;;;3.23;2.87;;;;;;;;;;5024865;28;20429;-80
2023/08/07 01:43:52;;;;;;;3.10;2.90;;;;;;;;;;5022900;28;20497;-79
2023/08/07 01:46:19;;;;;;;2.73;2.43;;;;;;;;;;5024221;28;20475;-80
2023/08/07 01:48:45;;;;;;;3.50;2.80;;;;;;;;;;5023039;28;20881;-81
2023/08/07 01:51:11;;;;;;;3.40;2.63;;;;;;;;;;5022374;28;20544;-79
2023/08/07 01:53:37;;;;;;;7.17;3.17;;;;;;;;;;5025789;28;20446;-80
2023/08/07 01:56:03;;;;;;;2.90;2.70;;;;;;;;;;5023307;28;20431;-80
2023/08/07 01:58:29;;;;;;;6.50;2.53;;;;;;;;;;5021011;28;20567;-80
2023/08/07 02:00:56;;;;;;;5.60;2.43;;;;;;;;;;5019802;28;20458;-78
2023/08/07 02:03:21;;;;;;;2.30;2.10;;;;;;;;;;5020158;28;20474;-79
2023/08/07 02:05:48;;;;;;;3.83;2.60;;;;;;;;;;5022357;28;20465;-79
2023/08/07 02:08:14;;;;;;;4.07;2.20;;;;;;;;;;4997673;28;20533;-80
2023/08/07 02:10:41;;;;;;;2.67;2.37;;;;;;;;;;5021262;28;20505;-79
2023/08/07 02:13:07;;;;;;;6.57;2.13;;;;;;;;;;5001420;28;20465;-79
2023/08/07 02:15:33;;;;;;;2.97;2.43;;;;;;;;;;5025522;28;20508;-80
2023/08/07 02:17:59;;;;;;;6.77;3.63;;;;;;;;;;5022728;28;20430;-79
2023/08/07 02:20:25;;;;;;;4.30;2.90;;;;;;;;;;5036708;28;20444;-80
2023/08/07 02:22:51;;;;;;;4.47;2.30;;;;;;;;;;5028852;28;20827;-79
2023/08/07 02:25:17;;;;;;;2.03;1.93;;;;;;;;;;5024896;28;20456;-79
2023/08/07 02:27:43;;;;;;;1.97;1.93;;;;;;;;;;5024267;28;20407;-80
2023/08/07 02:30:09;;;;;;;1.93;1.87;;;;;;;;;;5023529;28;20501;-79
2023/08/07 02:32:35;;;;;;;2.63;1.90;;;;;;;;;;5021076;28;20438;-79
2023/08/07 02:35:01;;;;;;;2.17;1.93;;;;;;;;;;5024529;28;21084;-79
2023/08/07 02:37:27;;;;;;;3.17;1.60;;;;;;;;;;5023294;28;20886;-78
2023/08/07 02:39:53;;;;;;;2.70;1.90;;;;;;;;;;5029142;28;20814;-78
2023/08/07 02:42:19;;;;;;;2.20;1.60;;;;;;;;;;5024812;28;20442;-79
2023/08/07 02:44:45;;;;;;;2.30;2.10;;;;;;;;;;5035939;28;20469;-79
2023/08/07 02:47:11;;;;;;;3.23;2.43;;;;;;;;;;5025042;28;20453;-79
2023/08/07 02:49:37;;;;;;;2.93;2.73;;;;;;;;;;5027378;28;20434;-79
2023/08/07 02:52:04;;;;;;;3.40;3.20;;;;;;;;;;5027686;28;20446;-79
2023/08/07 02:54:30;;;;;;;3.03;2.80;;;;;;;;;;5038213;28;20434;-79
2023/08/07 02:56:56;;;;;;;3.27;3.03;;;;;;;;;;5026731;28;20815;-80
2023/08/07 02:59:22;;;;;;;5.57;2.90;;;;;;;;;;5028940;28;20422;-80
2023/08/07 03:01:48;;;;;;;3.40;3.30;;;;;;;;;;5023042;28;20435;-80
2023/08/07 03:04:15;;;;;;;2.50;2.40;;;;;;;;;;5034651;28;20455;-79
2023/08/07 03:06:41;;;;;;;3.60;2.33;;;;;;;;;;5038274;28;20426;-80
2023/08/07 03:09:07;;;;;;;3.23;3.00;;;;;;;;;;5032620;28;20435;-81
2023/08/07 03:11:33;;;;;;;2.27;2.17;;;;;;;;;;5024000;28;21932;-77
2023/08/07 03:13:59;;;;;;;2.10;2.00;;;;;;;;;;5033931;28;20970;-78
2023/08/07 03:16:25;;;;;;;2.50;2.40;;;;;;;;;;5011672;28;20450;-78
2023/08/07 03:18:51;;;;;;;3.70;2.47;;;;;;;;;;5024551;28;20457;-79
2023/08/07 03:21:17;;;;;;;3.20;2.93;;;;;;;;;;5009358;28;20789;-78
2023/08/07 03:23:43;;;;;;;3.23;2.83;;;;;;;;;;5025092;28;20964;-77
2023/08/07 03:26:10;;;;;;;4.53;2.77;;;;;;;;;;5024802;28;20537;-79
2023/08/07 03:28:37;;;;;;;3.80;2.90;;;;;;;;;;5024811;28;20419;-78
2023/08/07 03:31:06;;;;;;;4.83;3.60;;;;;;;;;;5030776;28;20451;-79
2023/08/07 03:33:32;;;;;;;4.80;3.97;;;;;;;;;;5026012;28;20454;-79
2023/08/07 03:35:58;;;;;;;8.30;4.30;;;;;;;;;;5003213;28;20745;-78
2023/08/07 03:38:24;;;;;;;5.77;4.00;;;;;;;;;;5024372;28;20419;-77
2023/08/07 03:40:50;;;;;;;5.97;3.57;;;;;;;;;;5024103;28;21643;-79
2023/08/07 03:43:16;;;;;;;10.47;4.87;;;;;;;;;;5028800;28;20470;-79
2023/08/07 03:45:42;;;;;;;8.30;4.13;;;;;;;;;;5018332;28;20450;-79
2023/08/07 03:48:08;;;;;;;10.27;4.30;;;;;;;;;;5023241;28;20422;-79
2023/08/07 03:50:36;;;;;;;7.43;4.33;;;;;;;;;;5020450;28;20446;-78
2023/08/07 03:53:02;;;;;;;11.73;3.97;;;;;;;;;;5024504;28;21162;-78
2023/08/07 03:55:28;;;;;;;4.80;4.30;;;;;;;;;;5028885;28;20450;-79
2023/08/07 03:57:54;;;;;;;10.13;5.67;;;;;;;;;;5032104;28;20879;-79
2023/08/07 04:00:20;;;;;;;9.93;4.37;;;;;;;;;;5024090;28;20438;-79
2023/08/07 04:02:46;;;;;;;5.73;4.00;;;;;;;;;;5009397;28;20461;-78
2023/08/07 04:05:12;;;;;;;4.17;3.83;;;;;;;;;;5023470;28;20439;-79
2023/08/07 04:07:38;;;;;;;12.03;4.20;;;;;;;;;;5025747;28;20439;-79
2023/08/07 04:10:05;;;;;;;7.17;4.30;;;;;;;;;;5027831;28;20816;-78
2023/08/07 04:12:31;;;;;;;8.23;4.37;;;;;;;;;;5025059;28;20473;-79
2023/08/07 04:14:57;;;;;;;12.13;5.43;;;;;;;;;;5026604;28;20445;-76
2023/08/07 04:17:23;;;;;;;11.03;6.40;;;;;;;;;;5018242;28;20434;-76
2023/08/07 04:19:49;;;;;;;7.43;6.00;;;;;;;;;;5023152;28;20441;-76
2023/08/07 04:22:15;;;;;;;15.20;4.57;;;;;;;;;;5003487;28;20507;-79
2023/08/07 04:24:41;;;;;;;7.50;3.87;;;;;;;;;;5012572;28;20485;-79
2023/08/07 04:27:08;;;;;;;6.50;3.87;;;;;;;;;;5002134;28;20454;-79
2023/08/07 04:29:34;;;;;;;4.83;3.17;;;;;;;;;;5023863;28;20462;-81
2023/08/07 04:32:01;;;;;;;5.40;4.00;;;;;;;;;;5028415;28;20527;-79
2023/08/07 04:34:27;;;;;;;8.43;3.73;;;;;;;;;;5028007;28;20454;-78
2023/08/07 04:36:53;;;;;;;7.13;4.33;;;;;;;;;;5029903;28;20446;-79
2023/08/07 04:39:19;;;;;;;10.40;4.33;;;;;;;;;;5014987;28;20898;-79
2023/08/07 04:41:45;;;;;;;9.67;4.60;;;;;;;;;;5021172;28;20963;-78
2023/08/07 04:44:11;;;;;;;10.60;4.97;;;;;;;;;;5028266;28;20470;-78
2023/08/07 04:46:37;;;;;;;8.27;4.50;;;;;;;;;;5029991;28;21007;-78
2023/08/07 04:49:03;;;;;;;7.60;4.17;;;;;;;;;;5028538;28;20527;-78
2023/08/07 04:51:31;;;;;;;5.20;4.03;;;;;;;;;;5025624;28;20477;-79
2023/08/07 04:53:57;;;;;;;4.93;3.83;;;;;;;;;;5031450;28;21227;-78
2023/08/07 04:56:23;;;;;;;6.53;3.87;;;;;;;;;;5032118;28;20438;-78
2023/08/07 04:58:49;;;;;;;9.73;4.43;;;;;;;;;;5028451;28;20496;-78
2023/08/07 05:01:15;;;;;;;9.90;4.60;;;;;;;;;;5027426;28;20457;-77
2023/08/07 05:03:41;;;;;;;10.97;4.37;;;;;;;;;;5009486;28;20485;-79
2023/08/07 05:06:07;;;;;;;9.70;4.53;;;;;;;;;;5026409;28;20816;-78
2023/08/07 05:08:33;;;;;;;8.10;4.40;;;;;;;;;;5028158;28;20432;-77
2023/08/07 05:10:59;;;;;;;7.73;4.80;;;;;;;;;;5021711;28;20422;-79
2023/08/07 05:13:25;;;;;;;8.10;4.97;;;;;;;;;;5028216;28;20496;-79
2023/08/07 05:15:51;;;;;;;14.37;5.93;;;;;;;;;;5027596;28;20775;-79
2023/08/07 05:18:17;;;;;;;12.47;6.00;;;;;;;;;;5031851;28;20433;-78
2023/08/07 05:20:43;;;;;;;6.17;5.67;;;;;;;;;;5027546;28;20434;-77
2023/08/07 05:23:10;;;;;;;8.60;6.67;;;;;;;;;;5028290;28;20477;-78
2023/08/07 05:25:37;;;;;;;12.87;9.23;;;;;;;;;;5024120;28;20438;-79
2023/08/07 05:28:03;;;;;;;8.13;5.60;;;;;;;;;;5034199;28;20484;-79
2023/08/07 05:30:29;;;;;;;6.17;5.63;;;;;;;;;;5030344;28;20445;-79
2023/08/07 05:32:55;;;;;;;8.70;5.90;;;;;;;;;;5029001;28;20629;-79
2023/08/07 05:35:21;;;;;;;9.83;6.20;;;;;;;;;;5025789;28;20533;-78
2023/08/07 05:37:47;;;;;;;8.97;6.20;;;;;;;;;;5013220;28;20442;-78
2023/08/07 05:40:13;;;;;;;7.37;6.50;;;;;;;;;;5025774;28;20446;-76
2023/08/07 05:42:41;;;;;;;7.40;6.30;;;;;;;;;;5024982;28;21182;-77
2023/08/07 05:45:08;;;;;;;8.27;7.23;;;;;;;;;;5006730;28;20466;-79
2023/08/07 05:47:34;;;;;;;14.33;7.13;;;;;;;;;;5007317;28;20443;-79
2023/08/07 05:50:00;;;;;;;6.10;5.60;;;;;;;;;;5025171;28;20460;-76
2023/08/07 05:52:26;;;;;;;7.50;6.57;;;;;;;;;;5026060;28;20437;-80
2023/08/07 05:54:53;;;;;;;7.60;6.87;;;;;;;;;;5025694;28;20431;-78
2023/08/07 05:57:19;;;;;;;10.27;5.90;;;;;;;;;;5028387;28;20826;-79
2023/08/07 05:59:48;;;;;;;8.80;6.87;;;;;;;;;;5025239;28;20423;-79
2023/08/07 06:02:14;;;;;;;11.37;7.60;;;;;;;;;;5027040;28;20433;-80
2023/08/07 06:04:40;;;;;;;12.57;7.70;;;;;;;;;;5026220;28;20458;-79
2023/08/07 06:07:07;;;;;;;8.37;7.67;;;;;;;;;;5033184;28;20487;-78
2023/08/07 06:09:33;;;;;;;7.90;7.20;;;;;;;;;;5005527;28;20458;-79
2023/08/07 06:11:59;;;;;;;7.70;7.00;;;;;;;;;;5026229;28;20445;-79
2023/08/07 06:14:25;;;;;;;7.50;6.90;;;;;;;;;;5028968;28;20438;-79
2023/08/07 06:16:52;;;;;;;6.13;5.60;;;;;;;;;;5030720;28;21360;-80
2023/08/07 06:19:18;;;;;;;7.63;6.17;;;;;;;;;;5031370;28;20457;-80
2023/08/07 06:21:44;;;;;;;5.60;5.20;;;;;;;;;;5027420;28;20819;-80
2023/08/07 06:24:10;;;;;;;8.00;5.00;;;;;;;;;;5030521;28;20469;-78
2023/08/07 06:26:37;;;;;;;4.90;4.00;;;;;;;;;;5026769;28;20486;-80
2023/08/07 06:29:04;;;;;;;4.63;4.20;;;;;;;;;;5022709;28;20458;-80
2023/08/07 06:31:30;;;;;;;9.03;4.67;;;;;;;;;;5027186;28;21218;-80
2023/08/07 06:33:56;;;;;;;4.57;3.83;;;;;;;;;;5024429;28;20445;-78
2023/08/07 06:36:22;;;;;;;6.00;4.60;;;;;;;;;;5000963;28;20449;-79
2023/08/07 06:38:48;;;;;;;5.47;3.93;;;;;;;;;;5024399;28;21277;-78
2023/08/07 06:41:14;;;;;;;4.53;3.57;;;;;;;;;;5007496;28;20438;-80
2023/08/07 06:43:40;;;;;;;4.63;4.20;;;;;;;;;;5023140;28;21242;-80
2023/08/07 06:46:06;;;;;;;7.93;4.10;;;;;;;;;;5029491;28;20466;-79
2023/08/07 06:48:32;;;;;;;4.00;3.70;;;;;;;;;;5029205;28;20496;-79
2023/08/07 06:50:58;;;;;;;6.33;3.90;;;;;;;;;;5024680;28;20438;-79
2023/08/07 06:53:24;;;;;;;7.83;4.00;;;;;;;;;;5026698;28;20435;-77
2023/08/07 06:55:53;;;;;;;4.23;3.83;;;;;;;;;;5002085;28;20555;-80
2023/08/07 06:58:19;;;;;;;3.50;3.30;;;;;;;;;;5025591;28;20524;-79
2023/08/07 07:00:46;;;;;;;2.83;2.70;;;;;;;;;;4997125;28;20537;-79
2023/08/07 07:03:12;;;;;;;3.73;3.47;;;;;;;;;;5004834;28;20478;-80
2023/08/07 07:05:38;;;;;;;3.80;3.50;;;;;;;;;;5023830;28;20434;-78
2023/08/07 07:08:04;;;;;;;4.00;3.70;;;;;;;;;;5002424;28;21224;-79
2023/08/07 07:10:30;;;;;;;4.57;3.70;;;;;;;;;;5023351;28;20933;-79
2023/08/07 07:12:56;;;;;;;4.30;3.70;;;;;;;;;;5029768;28;20468;-79
2023/08/07 07:15:22;;;;;;;4.60;4.20;;;;;;;;;;5020862;28;20878;-81
2023/08/07 07:17:48;;;;;;;5.07;4.57;;;;;;;;;;5015212;28;20478;-77
2023/08/07 07:20:14;;;;;;;5.33;3.37;;;;;;;;;;5022275;28;20447;-82
2023/08/07 07:22:40;;;;;;;2.97;2.67;;;;;;;;;;5005426;28;20450;-81
2023/08/07 07:25:07;;;;;;;4.70;3.80;;;;;;;;;;5008522;28;20465;-81
2023/08/07 07:27:33;;;;;;;3.67;3.13;;;;;;;;;;5024131;28;20511;-82
2023/08/07 07:29:59;;;;;;;4.30;3.97;;;;;;;;;;5024321;28;20994;-81
2023/08/07 07:32:26;;;;;;;3.70;3.47;;;;;;;;;;5022179;28;20457;-81
2023/08/07 07:34:52;;;;;;;5.47;3.80;;;;;;;;;;5026593;28;20443;-80
2023/08/07 07:37:18;;;;;;;4.03;3.67;;;;;;;;;;5006740;28;20438;-79
2023/08/07 07:39:44;;;;;;;6.20;4.17;;;;;;;;;;5007523;28;20435;-80
2023/08/07 07:42:10;;;;;;;5.30;3.87;;;;;;;;;;5022327;28;20891;-78
2023/08/07 07:44:36;;;;;;;4.67;3.23;;;;;;;;;;5024962;28;20478;-80
2023/08/07 07:47:02;;;;;;;5.50;4.00;;;;;;;;;;5018933;28;20446;-81
2023/08/07 07:49:28;;;;;;;5.03;4.63;;;;;;;;;;5020618;28;20946;-79
2023/08/07 07:51:54;;;;;;;3.70;3.50;;;;;;;;;;5032489;28;20449;-80
2023/08/07 07:54:20;;;;;;;4.00;3.20;;;;;;;;;;5025996;28;20423;-82
2023/08/07 07:56:46;;;;;;;4.27;3.70;;;;;;;;;;5006570;28;20520;-80
2023/08/07 07:59:13;;;;;;;6.70;5.47;;;;;;;;;;5023925;28;20964;-81
2023/08/07 08:01:39;;;;;;;4.20;3.90;;;;;;;;;;5004901;28;20447;-80
2023/08/07 08:04:06;;;;;;;3.40;3.13;;;;;;;;;;5025044;28;20457;-81
2023/08/07 08:06:32;;;;;;;3.73;3.43;;;;;;;;;;5025771;28;20440;-80
2023/08/07 08:08:59;;;;;;;6.77;3.30;;;;;;;;;;5000284;28;20445;-80
2023/08/07 08:11:25;;;;;;;4.73;3.03;;;;;;;;;;5022304;28;20809;-78
2023/08/07 08:13:51;;;;;;;6.43;3.60;;;;;;;;;;5020135;28;20429;-77
2023/08/07 08:16:17;;;;;;;4.30;3.67;;;;;;;;;;5014217;28;20435;-78
2023/08/07 08:18:43;;;;;;;4.10;3.40;;;;;;;;;;5022723;28;20414;-78
2023/08/07 08:21:09;;;;;;;8.70;4.47;;;;;;;;;;5023645;28;20435;-76
2023/08/07 08:23:35;;;;;;;4.87;4.10;;;;;;;;;;5011835;28;20454;-78
2023/08/07 08:26:01;;;;;;;5.80;3.70;;;;;;;;;;5030158;28;20423;-79
2023/08/07 08:28:27;;;;;;;5.40;4.80;;;;;;;;;;5002285;28;20457;-77
2023/08/07 08:30:53;;;;;;;4.40;3.27;;;;;;;;;;5023700;28;20427;-79
2023/08/07 08:33:19;;;;;;;5.90;4.40;;;;;;;;;;5013161;28;20445;-79
2023/08/07 08:35:46;;;;;;;4.87;4.43;;;;;;;;;;5020675;28;20446;-78
2023/08/07 08:38:12;;;;;;;6.80;5.23;;;;;;;;;;5009845;28;20622;-77
2023/08/07 08:40:39;;;;;;;4.87;4.47;;;;;;;;;;4997522;28;20431;-77
2023/08/07 08:43:06;;;;;;;8.43;5.03;;;;;;;;;;5019954;28;21205;-78
2023/08/07 08:45:33;;;;;;;7.10;5.00;;;;;;;;;;5024410;28;20994;-79
2023/08/07 08:48:01;;;;;;;6.17;5.63;;;;;;;;;;5000021;28;20426;-79
2023/08/07 08:50:28;;;;;;;10.73;4.37;;;;;;;;;;5001468;28;20465;-77
2023/08/07 08:52:56;;;;;;;8.80;4.83;;;;;;;;;;5028938;28;20819;-79
2023/08/07 08:55:22;;;;;;;8.90;4.70;;;;;;;;;;5023968;28;20454;-81
2023/08/07 08:57:49;;;;;;;9.20;4.63;;;;;;;;;;5028355;28;20406;-79
2023/08/07 09:00:23;;;;;;;4.60;3.67;;;;;;;;;;5026794;28;20488;-80
2023/08/07 09:02:49;;;;;;;7.10;4.00;;;;;;;;;;5022983;28;20899;-80
2023/08/07 09:05:16;;;;;;;4.87;3.70;;;;;;;;;;5025754;28;20814;-78
2023/08/07 09:07:42;;;;;;;4.10;3.60;;;;;;;;;;5020237;28;20411;-79
2023/08/07 09:10:09;;;;;;;7.67;3.80;;;;;;;;;;5022526;28;20496;-79
2023/08/07 09:12:37;;;;;;;3.40;3.20;;;;;;;;;;5022429;28;21117;-79
2023/08/07 09:15:04;;;;;;;6.47;3.90;;;;;;;;;;5028640;28;20450;-78
2023/08/07 09:17:34;;;;;;;7.40;5.47;;;;;;;;;;5032399;28;20812;-79
2023/08/07 09:20:00;;;;;;;5.90;3.40;;;;;;;;;;5027188;28;20442;-78
2023/08/07 09:22:26;;;;;;;4.93;3.43;;;;;;;;;;5023211;28;20477;-78
2023/08/07 09:24:52;;;;;;;7.00;4.07;;;;;;;;;;5033298;28;20520;-78
2023/08/07 09:27:18;;;;;;;5.93;4.20;;;;;;;;;;5008233;28;20434;-78
2023/08/07 09:29:47;;;;;;;3.63;3.40;;;;;;;;;;5017572;28;20437;-78
2023/08/07 09:32:13;;;;;;;4.03;3.70;;;;;;;;;;5007959;28;20561;-78
2023/08/07 09:34:40;;;;;;;4.07;3.77;;;;;;;;;;5028622;28;20955;-76
2023/08/07 09:37:08;;;;;;;3.57;3.37;;;;;;;;;;5009996;28;20435;-78
2023/08/07 09:39:35;;;;;;;5.70;4.20;;;;;;;;;;5017334;28;20430;-78
2023/08/07 09:42:01;;;;;;;6.00;3.70;;;;;;;;;;5012280;28;20480;-78
2023/08/07 09:44:35;;;;;;;4.63;3.90;;;;;;;;;;5018783;28;20482;-77
2023/08/07 09:47:01;;;;;;;6.93;4.73;;;;;;;;;;5014671;28;20431;-78
2023/08/07 09:49:33;;;;;;;4.57;4.27;;;;;;;;;;5030666;28;20468;-76
2023/08/07 09:52:01;;;;;;;3.07;2.83;;;;;;;;;;5025959;28;20424;-78
2023/08/07 09:54:27;;;;;;;4.00;3.70;;;;;;;;;;5019315;28;20942;-77
2023/08/07 09:56:55;;;;;;;3.63;3.33;;;;;;;;;;5036774;28;20516;-78
2023/08/07 09:59:22;;;;;;;3.80;3.50;;;;;;;;;;5022722;28;20493;-79
2023/08/07 10:01:51;;;;;;;4.23;3.93;;;;;;;;;;5016535;28;20522;-78
2023/08/07 10:04:17;;;;;;;3.70;3.17;;;;;;;;;;5023056;28;20985;-78
2023/08/07 10:06:44;;;;;;;5.93;3.43;;;;;;;;;;5018694;28;20514;-79
2023/08/07 10:09:10;;;;;;;3.07;2.77;;;;;;;;;;5017941;28;21207;-79
2023/08/07 10:11:39;;;;;;;5.80;4.50;;;;;;;;;;5029123;28;20442;-79
2023/08/07 10:14:05;;;;;;;3.97;3.60;;;;;;;;;;5023216;28;20864;-81
2023/08/07 10:16:32;;;;;;;7.80;3.90;;;;;;;;;;5020799;28;20435;-75
2023/08/07 10:18:58;;;;;;;4.80;3.43;;;;;;;;;;5021091;28;20835;-77
2023/08/07 10:21:25;;;;;;;5.17;4.20;;;;;;;;;;5025151;28;20435;-76
2023/08/07 10:23:53;;;;;;;6.17;4.27;;;;;;;;;;5024819;28;20883;-76
2023/08/07 10:26:20;;;;;;;5.27;4.27;;;;;;;;;;5020712;28;20443;-76
2023/08/07 10:28:46;;;;;;;10.17;4.10;;;;;;;;;;5024989;28;20446;-76
2023/08/07 10:31:13;;;;;;;3.77;3.40;;;;;;;;;;5025873;28;20449;-78
2023/08/07 10:33:39;;;;;;;7.17;3.53;;;;;;;;;;5013962;28;20488;-77
2023/08/07 10:36:10;;;;;;;6.90;3.40;;;;;;;;;;5016845;28;20527;-77
2023/08/07 10:38:35;;;;;;;3.60;3.30;;;;;;;;;;5025242;28;20958;-77
2023/08/07 10:41:14;;;;;;;6.80;3.87;;;;;;;;;;5024109;28;20445;-76
2023/08/07 10:43:41;;;;;;;3.37;3.13;;;;;;;;;;5032525;28;20497;-77
2023/08/07 10:46:09;;;;;;;7.10;3.87;;;;;;;;;;5024715;28;20431;-75
2023/08/07 10:48:38;;;;;;;3.93;3.63;;;;;;;;;;5024322;28;20457;-76
2023/08/07 10:51:05;;;;;;;8.70;4.20;;;;;;;;;;5025849;28;20760;-77
2023/08/07 10:53:43;;;;;;;16.60;4.77;;;;;;;;;;5025657;28;20445;-76
2023/08/07 10:56:11;;;;;;;7.20;4.20;;;;;;;;;;5026102;28;20503;-77
2023/08/07 10:58:41;;;;;;;5.30;4.37;;;;;;;;;;5023075;28;20439;-76
2023/08/07 11:01:26;;;;;;;10.50;6.30;;;;;;;;;;5028436;28;20434;-77
2023/08/07 11:03:55;;;;;;;6.20;4.23;;;;;;;;;;5027029;28;20829;-75
2023/08/07 11:06:22;;;;;;;6.40;5.47;;;;;;;;;;5019859;28;20438;-75
2023/08/07 11:08:49;;;;;;;5.13;3.23;;;;;;;;;;5019861;28;20493;-76
2023/08/07 11:11:15;;;;;;;4.37;3.90;;;;;;;;;;5022888;28;20423;-77
2023/08/07 11:13:41;;;;;;;3.70;3.40;;;;;;;;;;5018244;28;20450;-78
2023/08/07 11:16:07;;;;;;;6.17;3.87;;;;;;;;;;5014672;28;20407;-78
2023/08/07 11:18:35;;;;;;;4.60;3.80;;;;;;;;;;4996187;28;20419;-79
2023/08/07 11:21:01;;;;;;;7.70;4.17;;;;;;;;;;5005279;28;20411;-77
2023/08/07 11:23:28;;;;;;;5.57;4.83;;;;;;;;;;5020360;28;20462;-78
2023/08/07 11:25:54;;;;;;;6.10;3.83;;;;;;;;;;5005356;28;20410;-79
2023/08/07 11:28:20;;;;;;;9.90;3.33;;;;;;;;;;5019675;28;20497;-78
2023/08/07 11:30:49;;;;;;;3.00;2.77;;;;;;;;;;5031005;28;20933;-78
2023/08/07 11:33:15;;;;;;;2.93;2.57;;;;;;;;;;5025907;28;20415;-78
2023/08/07 11:35:44;;;;;;;3.53;3.23;;;;;;;;;;5022431;28;20455;-76
2023/08/07 11:38:10;;;;;;;4.90;3.00;;;;;;;;;;5019992;28;20484;-77
2023/08/07 11:40:36;;;;;;;6.07;4.00;;;;;;;;;;5026519;28;20446;-77
2023/08/07 11:43:02;;;;;;;4.70;3.50;;;;;;;;;;5020167;28;20523;-76
2023/08/07 11:45:29;;;;;;;5.63;3.60;;;;;;;;;;5020577;28;20446;-76
2023/08/07 11:47:56;;;;;;;4.37;4.00;;;;;;;;;;5025225;28;20468;-78
2023/08/07 11:50:22;;;;;;;6.60;5.07;;;;;;;;;;5020562;28;20441;-75
2023/08/07 11:52:49;;;;;;;8.90;4.60;;;;;;;;;;5023652;28;20490;-77
2023/08/07 11:55:15;;;;;;;12.93;5.40;;;;;;;;;;5020372;28;20937;-77
2023/08/07 11:57:43;;;;;;;6.90;3.93;;;;;;;;;;5012540;28;20450;-78
2023/08/07 12:00:13;;;;;;;4.27;3.80;;;;;;;;;;5028277;28;20886;-78
2023/08/07 12:02:43;;;;;;;3.90;3.60;;;;;;;;;;5023562;28;21115;-78
2023/08/07 12:05:11;;;;;;;5.03;3.17;;;;;;;;;;4996652;28;20470;-77
2023/08/07 12:07:37;;;;;;;4.10;3.27;;;;;;;;;;5022041;28;20453;-76
2023/08/07 12:10:12;;;;;;;3.70;3.03;;;;;;;;;;5023417;28;20716;-76
2023/08/07 12:12:38;;;;;;;5.03;3.60;;;;;;;;;;5020435;28;20472;-77
2023/08/07 12:15:07;;;;;;;3.73;3.43;;;;;;;;;;5022232;28;20438;-77
2023/08/07 12:17:33;;;;;;;4.57;3.57;;;;;;;;;;5021405;28;20466;-78
2023/08/07 12:19:59;;;;;;;4.30;3.40;;;;;;;;;;5033692;28;21578;-78
2023/08/07 12:22:30;;;;;;;4.40;3.30;;;;;;;;;;5017431;28;20533;-77
2023/08/07 12:24:56;;;;;;;7.87;2.90;;;;;;;;;;4999047;28;20565;-78
2023/08/07 12:27:22;;;;;;;9.90;4.10;;;;;;;;;;5032713;28;21004;-78
2023/08/07 12:29:48;;;;;;;3.27;2.93;;;;;;;;;;5030939;28;20434;-76
2023/08/07 12:32:14;;;;;;;4.00;2.93;;;;;;;;;;5002973;28;20812;-78
2023/08/07 12:34:40;;;;;;;4.10;2.87;;;;;;;;;;5025049;28;20438;-77
2023/08/07 12:37:06;;;;;;;5.13;3.20;;;;;;;;;;5030973;28;20451;-79
2023/08/07 12:39:32;;;;;;;2.60;2.40;;;;;;;;;;5023466;28;20532;-76
2023/08/07 12:41:58;;;;;;;3.50;2.93;;;;;;;;;;5026396;28;20589;-77
2023/08/07 12:44:25;;;;;;;3.43;2.30;;;;;;;;;;5026348;28;20557;-78
2023/08/07 12:46:50;;;;;;;2.33;2.13;;;;;;;;;;5021192;28;20466;-78
2023/08/07 12:49:19;;;;;;;2.80;2.60;;;;;;;;;;5017674;28;20926;-79
2023/08/07 12:51:45;;;;;;;3.77;2.70;;;;;;;;;;5022836;28;20449;-77
2023/08/07 12:54:11;;;;;;;6.13;3.13;;;;;;;;;;5026397;28;20536;-77
2023/08/07 12:56:37;;;;;;;2.37;2.23;;;;;;;;;;5032775;28;20434;-78
2023/08/07 12:59:03;;;;;;;2.80;2.60;;;;;;;;;;5025529;28;20520;-78
2023/08/07 13:01:29;;;;;;;2.27;2.20;;;;;;;;;;5027456;28;20430;-78
2023/08/07 13:03:55;;;;;;;4.20;2.87;;;;;;;;;;4991439;28;20470;-78
2023/08/07 13:06:21;;;;;;;5.43;2.30;;;;;;;;;;5005081;28;20442;-78
2023/08/07 13:08:47;;;;;;;2.67;2.23;;;;;;;;;;5011626;28;20427;-79
2023/08/07 13:11:13;;;;;;;2.83;2.60;;;;;;;;;;5021169;28;20411;-77
2023/08/07 13:13:40;;;;;;;4.40;2.53;;;;;;;;;;5024042;28;20434;-78
2023/08/07 13:16:06;;;;;;;3.70;2.47;;;;;;;;;;5018941;28;20470;-77
2023/08/07 13:18:32;;;;;;;3.50;2.37;;;;;;;;;;5008136;28;21254;-76
2023/08/07 13:20:58;;;;;;;4.80;2.17;;;;;;;;;;5021667;28;20703;-77
2023/08/07 13:23:24;;;;;;;2.20;1.97;;;;;;;;;;5023657;28;20468;-78
2023/08/07 13:25:50;;;;;;;2.40;2.20;;;;;;;;;;5025490;28;20437;-77
2023/08/07 13:28:18;;;;;;;2.00;1.90;;;;;;;;;;5024176;28;20937;-77
2023/08/07 13:30:44;;;;;;;3.77;2.10;;;;;;;;;;5010576;28;20774;-78
2023/08/07 13:33:10;;;;;;;1.77;1.67;;;;;;;;;;5031982;28;20536;-76
2023/08/07 13:35:37;;;;;;;2.10;1.90;;;;;;;;;;5025563;28;20402;-77
2023/08/07 13:38:05;;;;;;;2.10;2.00;;;;;;;;;;5022075;28;20493;-77
2023/08/07 13:40:37;;;;;;;1.87;1.77;;;;;;;;;;5020941;28;20423;-77
2023/08/07 13:43:07;;;;;;;2.00;1.90;;;;;;;;;;5027799;28;20465;-77
2023/08/07 13:45:33;;;;;;;2.13;2.03;;;;;;;;;;5022244;28;20437;-78
2023/08/07 13:47:59;;;;;;;1.50;1.43;;;;;;;;;;5023857;28;20955;-77
2023/08/07 13:50:25;;;;;;;3.20;2.67;;;;;;;;;;5032829;28;20424;-78
2023/08/07 13:52:51;;;;;;;2.60;2.30;;;;;;;;;;5024064;28;20937;-77
2023/08/07 13:55:17;;;;;;;2.00;1.90;;;;;;;;;;5026269;28;20442;-77
2023/08/07 13:57:43;;;;;;;2.00;1.90;;;;;;;;;;5008468;28;20445;-79
2023/08/07 14:00:10;;;;;;;1.70;1.70;;;;;;;;;;5020611;28;20423;-77
2023/08/07 14:02:36;;;;;;;1.87;1.87;;;;;;;;;;4997566;28;20481;-77
2023/08/07 14:05:03;;;;;;;2.90;2.70;;;;;;;;;;5016760;28;20463;-78
2023/08/07 14:07:29;;;;;;;2.70;1.93;;;;;;;;;;5027571;28;20437;-76
2023/08/07 14:09:56;;;;;;;2.67;2.47;;;;;;;;;;5036230;28;20848;-77
2023/08/07 14:12:22;;;;;;;2.20;2.10;;;;;;;;;;5005225;28;20465;-75
2023/08/07 14:14:48;;;;;;;4.57;2.63;;;;;;;;;;5024543;28;20770;-77
2023/08/07 14:17:14;;;;;;;2.20;2.00;;;;;;;;;;5022799;28;20592;-78
2023/08/07 14:19:40;;;;;;;2.27;1.80;;;;;;;;;;5029360;28;20846;-77
2023/08/07 14:22:06;;;;;;;2.90;1.53;;;;;;;;;;5026177;28;20468;-77
2023/08/07 14:24:32;;;;;;;1.93;1.93;;;;;;;;;;5029981;28;20537;-77
2023/08/07 14:26:58;;;;;;;2.50;2.40;;;;;;;;;;5022958;28;20517;-77
2023/08/07 14:29:24;;;;;;;2.60;2.50;;;;;;;;;;5033320;28;20417;-79
2023/08/07 14:31:50;;;;;;;2.50;2.27;;;;;;;;;;5024426;28;20457;-76
2023/08/07 14:34:16;;;;;;;5.20;2.13;;;;;;;;;;5026522;28;20406;-77
2023/08/07 14:36:42;;;;;;;2.07;1.97;;;;;;;;;;5007314;28;20848;-78
2023/08/07 14:39:08;;;;;;;2.30;2.10;;;;;;;;;;5008322;28;20440;-79